Time;durP1;ratioP1;P1;durP2;ratioP2;P2;SDS_P1;SDS_P2;PMS_P1;PMS_P2;Temp;Humidity;BMP_temperature;BMP_pressure;BME280_temperature;BME280_humidity;BME280_pressure;Samples;Min_cycle;Max_cycle;Signal;HPM_P1;HPM_P2
2022/05/11 00:01:46;;;;;;;13.60;8.15;;;;;;;11.84;100.00;101183.50;5026551;28;20030;-74
2022/05/11 00:04:12;;;;;;;14.75;7.30;;;;;;;11.79;100.00;101190.25;5019630;28;20064;-75
2022/05/11 00:06:38;;;;;;;18.88;7.53;;;;;;;11.79;100.00;101193.72;5020483;28;20049;-75
2022/05/11 00:09:07;;;;;;;15.95;7.82;;;;;;;11.87;100.00;101196.44;5017270;28;20110;-75
2022/05/11 00:11:33;;;;;;;13.23;6.88;;;;;;;11.86;100.00;101200.06;5016366;28;20044;-75
2022/05/11 00:14:00;;;;;;;13.93;7.20;;;;;;;11.99;100.00;101206.84;5016932;28;20026;-75
2022/05/11 00:16:27;;;;;;;14.93;7.85;;;;;;;12.04;100.00;101199.28;5016395;28;20133;-75
2022/05/11 00:18:53;;;;;;;13.65;7.85;;;;;;;12.08;100.00;101198.00;5021424;28;20029;-75
2022/05/11 00:21:18;;;;;;;11.57;7.28;;;;;;;12.06;100.00;101186.72;5016953;28;20033;-75
2022/05/11 00:23:43;;;;;;;16.23;7.63;;;;;;;12.08;100.00;101187.41;5016250;28;20032;-75
2022/05/11 00:26:09;;;;;;;15.38;7.30;;;;;;;12.01;100.00;101186.34;5019614;28;20030;-75
2022/05/11 00:28:35;;;;;;;13.65;7.38;;;;;;;11.97;100.00;101180.53;5035685;28;20489;-75
2022/05/11 00:31:01;;;;;;;18.60;7.90;;;;;;;11.85;100.00;101165.84;5021442;28;20030;-75
2022/05/11 00:33:26;;;;;;;13.98;7.20;;;;;;;11.93;100.00;101189.75;5003420;28;20014;-75
2022/05/11 00:35:52;;;;;;;14.23;7.82;;;;;;;11.79;100.00;101169.91;5028162;28;20040;-75
2022/05/11 00:38:21;;;;;;;13.52;7.43;;;;;;;11.83;100.00;101176.56;5019995;28;20083;-75
2022/05/11 00:40:50;;;;;;;12.27;8.32;;;;;;;11.81;100.00;101175.88;5022004;28;20036;-75
2022/05/11 00:43:59;;;;;;;12.02;6.68;;;;;;;11.85;100.00;101171.97;5015688;28;20025;-75
2022/05/11 00:46:36;;;;;;;12.40;7.00;;;;;;;11.83;100.00;101167.81;5018686;28;20406;-75
2022/05/11 00:51:58;;;;;;;13.38;6.85;;;;;;;11.73;100.00;101158.09;5018268;28;20095;-75
2022/05/11 00:54:29;;;;;;;12.98;7.03;;;;;;;11.87;100.00;101163.88;5017695;28;20021;-75
2022/05/11 00:57:00;;;;;;;12.90;7.07;;;;;;;11.77;100.00;101150.72;5018176;28;20809;-75
2022/05/11 00:59:31;;;;;;;12.80;7.65;;;;;;;11.72;100.00;101148.53;5028291;28;20054;-75
2022/05/11 01:02:03;;;;;;;11.60;6.63;;;;;;;11.82;100.00;101151.09;5012523;28;20037;-74
2022/05/11 01:04:31;;;;;;;10.60;6.72;;;;;;;11.87;100.00;101154.13;5029425;28;20113;-74
2022/05/11 01:06:57;;;;;;;17.80;7.30;;;;;;;11.91;100.00;101160.81;5027353;28;20059;-74
2022/05/11 01:09:23;;;;;;;14.32;7.22;;;;;;;11.91;100.00;101158.19;5019407;28;20202;-74
2022/05/11 01:11:55;;;;;;;13.45;7.75;;;;;;;11.93;100.00;101150.06;5021752;28;20018;-74
2022/05/11 01:14:24;;;;;;;13.23;7.50;;;;;;;11.87;100.00;101134.81;5014385;28;20476;-73
2022/05/11 01:16:50;;;;;;;17.20;8.48;;;;;;;11.94;100.00;101144.63;5020604;28;20022;-74
2022/05/11 01:19:38;;;;;;;13.35;7.07;;;;;;;11.97;100.00;101147.97;5019596;28;20033;-74
2022/05/11 01:22:35;;;;;;;13.50;7.70;;;;;;;11.97;100.00;101145.31;5025837;28;20485;-74
2022/05/11 01:25:04;;;;;;;13.32;7.35;;;;;;;11.97;100.00;101143.50;5038262;28;20029;-74
2022/05/11 01:27:36;;;;;;;15.05;6.97;;;;;;;11.87;100.00;101119.75;5023316;28;20104;-74
2022/05/11 01:30:10;;;;;;;10.82;7.47;;;;;;;12.01;100.00;101146.69;5021359;28;20384;-74
2022/05/11 01:32:37;;;;;;;19.23;8.23;;;;;;;12.03;100.00;101142.06;5020450;28;20075;-74
2022/05/11 01:35:28;;;;;;;16.95;8.02;;;;;;;12.02;100.00;101146.53;5020226;28;20393;-74
2022/05/11 01:38:16;;;;;;;16.38;7.60;;;;;;;12.04;100.00;101139.28;5025207;28;20029;-74
2022/05/11 01:40:42;;;;;;;14.60;7.82;;;;;;;12.04;100.00;101149.00;5014083;28;20037;-74
2022/05/11 01:43:07;;;;;;;14.63;7.47;;;;;;;12.04;100.00;101139.28;5018764;28;20036;-74
2022/05/11 01:45:33;;;;;;;20.88;7.40;;;;;;;12.08;100.00;101131.84;5024070;28;20045;-74
2022/05/11 01:47:58;;;;;;;12.57;7.38;;;;;;;12.09;100.00;101130.88;5024131;28;20017;-74
2022/05/11 01:50:25;;;;;;;13.07;7.35;;;;;;;12.12;100.00;101133.22;5019568;28;20109;-74
2022/05/11 01:52:50;;;;;;;10.93;6.72;;;;;;;12.19;100.00;101136.91;5019907;28;20499;-74
2022/05/11 01:55:16;;;;;;;10.73;6.82;;;;;;;12.25;100.00;101136.28;5024821;28;20156;-74
2022/05/11 01:57:41;;;;;;;13.05;7.32;;;;;;;12.26;100.00;101118.59;5016786;28;20417;-74
2022/05/11 02:00:08;;;;;;;18.25;7.25;;;;;;;12.32;100.00;101121.47;5030847;28;20600;-73
2022/05/11 02:02:33;;;;;;;16.80;7.75;;;;;;;12.27;100.00;101110.50;5008999;28;20037;-73
2022/05/11 02:07:51;;;;;;;11.98;6.63;;;;;;;12.33;100.00;101112.53;5018942;28;20414;-74
2022/05/11 02:10:22;;;;;;;14.85;6.45;;;;;;;12.33;100.00;101111.72;5024188;28;20022;-74
2022/05/11 02:12:49;;;;;;;13.95;7.47;;;;;;;12.33;100.00;101106.41;5019901;28;20053;-74
2022/05/11 02:15:15;;;;;;;14.50;6.07;;;;;;;12.18;100.00;101082.31;5022400;28;20017;-73
2022/05/11 02:17:42;;;;;;;15.95;6.53;;;;;;;12.26;100.00;101095.63;5021348;28;20037;-73
2022/05/11 02:20:09;;;;;;;17.10;7.35;;;;;;;12.26;100.00;101098.28;5023352;28;20026;-73
2022/05/11 02:22:35;;;;;;;14.13;7.05;;;;;;;12.23;100.00;101085.34;5003991;28;20038;-73
2022/05/11 02:25:00;;;;;;;13.68;6.80;;;;;;;12.26;100.00;101098.28;5005735;28;20038;-72
2022/05/11 02:27:26;;;;;;;12.07;6.85;;;;;;;12.25;100.00;101093.94;5028999;28;20036;-72
2022/05/11 02:29:51;;;;;;;12.23;6.72;;;;;;;12.23;100.00;101095.91;5016669;28;20053;-73
2022/05/11 02:32:16;;;;;;;9.82;6.57;;;;;;;12.02;100.00;101063.69;5023927;28;20116;-74
2022/05/11 02:37:26;;;;;;;12.50;6.47;;;;;;;12.17;100.00;101090.41;5021310;28;20113;-74
2022/05/11 02:39:51;;;;;;;9.65;5.60;;;;;;;12.08;100.00;101079.75;5023869;28;20025;-74
2022/05/11 02:42:18;;;;;;;10.90;6.35;;;;;;;12.12;100.00;101075.00;5004172;28;20492;-74
2022/05/11 02:44:45;;;;;;;11.18;7.20;;;;;;;12.07;100.00;101064.06;5025550;28;20389;-74
2022/05/11 02:47:11;;;;;;;14.15;6.63;;;;;;;12.00;100.00;101052.41;5022085;28;20504;-74
2022/05/11 02:49:37;;;;;;;13.25;5.80;;;;;;;12.14;100.00;101086.25;5016443;28;20030;-74
2022/05/11 02:52:03;;;;;;;13.00;5.55;;;;;;;12.15;100.00;101093.22;5003840;28;20398;-74
2022/05/11 02:54:28;;;;;;;11.98;5.60;;;;;;;12.04;100.00;101074.94;5013571;28;20014;-74
2022/05/11 02:56:53;;;;;;;13.15;6.15;;;;;;;12.05;100.00;101079.25;5023241;28;20071;-73
2022/05/11 02:59:19;;;;;;;10.05;5.75;;;;;;;12.11;100.00;101094.53;4999032;28;20073;-73
2022/05/11 03:01:44;;;;;;;10.20;6.05;;;;;;;12.06;100.00;101073.81;5019869;28;20029;-73
2022/05/11 03:04:09;;;;;;;10.82;6.25;;;;;;;12.08;100.00;101077.13;4986609;28;20405;-73
2022/05/11 03:06:35;;;;;;;9.90;5.75;;;;;;;12.08;100.00;101063.06;5023450;28;20481;-73
2022/05/11 03:09:00;;;;;;;14.05;6.25;;;;;;;12.19;100.00;101078.69;5017909;28;20034;-74
2022/05/11 03:11:26;;;;;;;9.25;5.82;;;;;;;12.21;100.00;101076.72;5025581;28;20033;-73
2022/05/11 03:13:51;;;;;;;8.55;5.72;;;;;;;12.24;100.00;101075.59;5016115;28;20130;-73
2022/05/11 03:16:16;;;;;;;8.88;5.78;;;;;;;12.24;100.00;101076.41;5026274;28;20044;-73
2022/05/11 03:18:42;;;;;;;12.85;7.25;;;;;;;12.16;100.00;101052.56;5022650;28;20044;-73
2022/05/11 03:21:07;;;;;;;9.85;6.03;;;;;;;12.25;100.00;101061.38;5028784;28;20072;-73
2022/05/11 03:23:33;;;;;;;12.68;5.53;;;;;;;12.22;100.00;101044.00;5025198;28;20038;-73
2022/05/11 03:25:58;;;;;;;11.80;6.00;;;;;;;12.25;100.00;101054.25;4989402;28;20038;-73
2022/05/11 03:28:24;;;;;;;12.73;6.30;;;;;;;12.25;100.00;101046.31;5023582;28;20547;-73
2022/05/11 03:30:49;;;;;;;12.63;6.10;;;;;;;12.27;100.00;101049.63;5020969;28;20674;-73
2022/05/11 03:35:59;;;;;;;10.85;6.10;;;;;;;12.25;100.00;101042.84;5020915;28;20047;-74
2022/05/11 03:38:24;;;;;;;9.65;5.70;;;;;;;12.18;100.00;101018.81;5029027;28;20112;-74
2022/05/11 03:40:49;;;;;;;9.25;5.72;;;;;;;12.21;100.00;101023.78;5026178;28;20029;-74
2022/05/11 03:43:15;;;;;;;9.77;5.90;;;;;;;12.20;100.00;101032.72;5041022;28;20536;-74
2022/05/11 03:45:40;;;;;;;9.25;5.30;;;;;;;12.19;100.00;101030.22;5017992;28;20497;-74
2022/05/11 03:48:06;;;;;;;11.60;5.60;;;;;;;12.12;100.00;101016.81;5027024;28;20026;-74
2022/05/11 03:50:32;;;;;;;9.32;4.97;;;;;;;12.13;100.00;101023.78;5022262;28;20058;-74
2022/05/11 03:52:58;;;;;;;9.60;5.97;;;;;;;12.10;100.00;101019.59;5020735;28;20029;-73
2022/05/11 03:55:25;;;;;;;13.18;5.20;;;;;;;12.10;100.00;101018.78;5026772;28;20034;-73
2022/05/11 03:57:50;;;;;;;7.85;4.88;;;;;;;12.08;100.00;101018.09;5021896;28;20052;-73
2022/05/11 04:00:22;;;;;;;10.50;6.05;;;;;;;12.10;100.00;101018.78;5016976;28;20487;-73
2022/05/11 04:02:49;;;;;;;8.27;5.35;;;;;;;12.02;100.00;101006.34;5017634;28;20382;-73
2022/05/11 04:05:15;;;;;;;9.70;5.18;;;;;;;12.13;100.00;101016.66;5025838;28;20021;-73
2022/05/11 04:07:42;;;;;;;7.97;5.07;;;;;;;12.18;100.00;101005.59;5023560;28;20413;-73
2022/05/11 04:10:09;;;;;;;9.63;5.25;;;;;;;12.19;100.00;101006.41;5025942;28;20389;-73
2022/05/11 04:12:35;;;;;;;9.32;4.68;;;;;;;12.09;100.00;100988.84;5014885;28;20116;-73
2022/05/11 04:15:01;;;;;;;11.93;5.22;;;;;;;12.11;100.00;100983.41;5026227;28;20059;-73
2022/05/11 04:17:26;;;;;;;11.77;4.72;;;;;;;12.27;100.00;101002.00;5015297;28;20246;-73
2022/05/11 04:19:52;;;;;;;8.93;3.97;;;;;;;12.35;100.00;100996.75;5028601;28;20580;-73
2022/05/11 04:22:17;;;;;;;8.55;5.03;;;;;;;12.40;100.00;101000.75;5011240;28;20026;-73
2022/05/11 04:24:43;;;;;;;9.23;4.35;;;;;;;12.44;99.40;101007.41;5013102;28;20048;-74
2022/05/11 04:27:09;;;;;;;6.45;4.20;;;;;;;12.46;99.60;101010.72;5016332;28;20103;-74
2022/05/11 04:29:39;;;;;;;9.45;5.00;;;;;;;12.45;99.95;100998.44;5025822;28;20040;-74
2022/05/11 04:32:05;;;;;;;8.93;3.75;;;;;;;12.47;99.31;100999.13;5013790;28;20045;-74
2022/05/11 04:34:30;;;;;;;12.48;4.70;;;;;;;12.43;99.41;101003.06;5013204;28;20036;-74
2022/05/11 04:36:56;;;;;;;8.48;4.15;;;;;;;12.30;99.41;100969.94;5011647;28;20029;-74
2022/05/11 04:39:21;;;;;;;7.47;4.22;;;;;;;12.41;99.00;100997.97;5025247;28;20037;-74
2022/05/11 04:41:46;;;;;;;10.02;4.40;;;;;;;12.46;98.79;100998.31;5019988;28;20034;-74
2022/05/11 04:44:12;;;;;;;10.82;5.20;;;;;;;12.47;98.89;101007.06;5025229;28;20068;-74
2022/05/11 04:46:38;;;;;;;9.93;4.85;;;;;;;12.55;98.68;101004.47;4996798;28;20030;-74
2022/05/11 04:49:16;;;;;;;9.65;4.93;;;;;;;12.58;97.79;101008.59;5026028;28;20029;-74
2022/05/11 04:51:42;;;;;;;10.10;4.03;;;;;;;12.46;97.96;100984.25;5023861;28;20085;-74
2022/05/11 04:54:08;;;;;;;8.98;5.10;;;;;;;12.62;98.64;101000.19;5015019;28;20033;-74
2022/05/11 04:56:34;;;;;;;8.75;4.68;;;;;;;12.55;97.84;100977.97;4998284;28;20026;-73
2022/05/11 04:58:59;;;;;;;9.55;4.25;;;;;;;12.60;97.72;100983.63;5016334;28;20509;-74
2022/05/11 05:01:25;;;;;;;10.32;4.43;;;;;;;12.72;98.56;100995.59;5014937;28;20034;-71
2022/05/11 05:03:51;;;;;;;10.38;4.57;;;;;;;12.60;97.89;100959.78;5025265;28;20026;-72
2022/05/11 05:06:16;;;;;;;14.07;4.85;;;;;;;12.76;98.14;100990.81;5013340;28;20037;-72
2022/05/11 05:08:42;;;;;;;12.90;5.15;;;;;;;12.76;97.08;100981.03;5013173;28;20022;-72
2022/05/11 05:11:07;;;;;;;11.88;5.18;;;;;;;12.85;96.55;100989.03;5013345;28;20448;-73
2022/05/11 05:13:33;;;;;;;9.23;4.18;;;;;;;12.88;96.94;100983.38;5015827;28;20018;-72
2022/05/11 05:15:58;;;;;;;9.90;4.38;;;;;;;12.92;96.29;100990.03;5012035;28;20029;-72
2022/05/11 05:18:24;;;;;;;17.02;5.43;;;;;;;12.90;96.65;100994.66;5024997;28;20448;-74
2022/05/11 05:20:49;;;;;;;8.60;4.70;;;;;;;12.86;96.44;100994.13;5030554;28;20025;-74
2022/05/11 05:23:15;;;;;;;9.02;4.25;;;;;;;12.85;96.12;100992.50;5015557;28;20033;-74
2022/05/11 05:25:40;;;;;;;14.10;5.00;;;;;;;12.95;96.66;100995.81;5015342;28;20160;-72
2022/05/11 05:31:05;;;;;;;11.40;4.60;;;;;;;12.82;96.27;100971.59;5011922;28;20136;-77
2022/05/11 05:33:32;;;;;;;12.35;4.60;;;;;;;12.79;95.85;100960.53;5009347;28;20375;-77
2022/05/11 05:35:58;;;;;;;7.75;4.35;;;;;;;12.93;95.88;100959.88;5011380;28;20301;-77
2022/05/11 05:38:23;;;;;;;15.07;4.60;;;;;;;13.00;95.36;100976.81;5014304;28;20041;-76
2022/05/11 05:40:49;;;;;;;7.93;4.07;;;;;;;12.99;95.82;100967.19;5005839;28;20258;-77
2022/05/11 05:43:14;;;;;;;16.55;4.60;;;;;;;13.12;95.61;100975.47;4997698;28;20038;-77
2022/05/11 05:45:40;;;;;;;9.38;4.00;;;;;;;13.14;94.83;100975.31;5023287;28;20036;-77
2022/05/11 05:48:07;;;;;;;8.10;3.83;;;;;;;13.13;94.17;100955.09;4995118;28;20030;-75
2022/05/11 05:50:33;;;;;;;10.43;5.07;;;;;;;13.17;93.50;100959.09;5018344;28;20032;-76
2022/05/11 05:52:58;;;;;;;11.43;4.60;;;;;;;13.30;93.63;100971.88;5013506;28;20312;-77
2022/05/11 05:55:24;;;;;;;10.30;4.35;;;;;;;13.23;93.64;100974.34;5011672;28;20076;-75
2022/05/11 05:57:49;;;;;;;11.45;4.07;;;;;;;13.26;93.05;100971.38;5013365;28;20330;-78
2022/05/11 06:00:15;;;;;;;13.65;4.80;;;;;;;13.34;93.56;100967.91;5003979;28;20034;-77
2022/05/11 06:02:40;;;;;;;9.82;4.05;;;;;;;13.40;92.34;100961.97;5013210;28;20026;-77
2022/05/11 06:05:06;;;;;;;8.70;4.65;;;;;;;13.50;91.90;100970.59;5018910;28;20117;-78
2022/05/11 06:07:33;;;;;;;11.82;3.97;;;;;;;13.49;91.70;100966.25;5012001;28;20037;-76
2022/05/11 06:09:59;;;;;;;13.63;4.57;;;;;;;13.67;91.99;100978.50;5004368;28;20050;-75
2022/05/11 06:12:25;;;;;;;8.18;4.40;;;;;;;13.76;91.09;100978.34;5019104;28;20476;-77
2022/05/11 06:14:51;;;;;;;10.50;4.53;;;;;;;13.64;90.75;100979.69;5019659;28;20038;-76
2022/05/11 06:17:23;;;;;;;12.18;5.03;;;;;;;13.60;91.26;100964.28;5009929;28;20033;-76
2022/05/11 06:19:49;;;;;;;11.02;4.18;;;;;;;13.64;91.05;100952.34;5027541;28;20119;-76
2022/05/11 06:22:14;;;;;;;11.20;4.18;;;;;;;13.70;90.69;100962.28;5002649;28;20412;-76
2022/05/11 06:24:40;;;;;;;8.40;3.67;;;;;;;13.80;90.35;100976.19;5024303;28;20029;-76
2022/05/11 06:27:12;;;;;;;14.00;3.80;;;;;;;13.83;90.69;100975.84;5021799;28;20026;-76
2022/05/11 06:29:38;;;;;;;12.40;4.70;;;;;;;13.79;90.30;100961.28;5023728;28;20025;-76
2022/05/11 06:32:03;;;;;;;12.68;3.95;;;;;;;14.08;90.32;100967.84;5002489;28;20042;-76
2022/05/11 06:34:29;;;;;;;8.85;4.43;;;;;;;14.35;88.79;100962.13;5016927;28;20033;-77
2022/05/11 06:36:54;;;;;;;11.48;4.00;;;;;;;14.57;87.82;100949.94;5025582;28;20120;-76
2022/05/11 06:39:21;;;;;;;9.85;3.83;;;;;;;14.74;87.13;100955.16;5009428;28;20029;-77
2022/05/11 06:41:46;;;;;;;14.25;4.22;;;;;;;14.76;87.08;100954.00;5017211;28;20029;-77
2022/05/11 06:44:13;;;;;;;10.57;4.60;;;;;;;14.73;86.11;100948.19;5027833;28;20053;-77
2022/05/11 06:46:38;;;;;;;13.88;4.85;;;;;;;14.63;86.48;100953.72;5025331;28;20025;-76
2022/05/11 06:49:04;;;;;;;12.27;4.20;;;;;;;14.52;86.23;100931.00;5018168;28;20040;-77
2022/05/11 06:51:29;;;;;;;9.80;4.25;;;;;;;14.60;86.99;100948.75;5030134;28;20116;-76
2022/05/11 06:59:27;;;;;;;15.82;4.72;;;;;;;14.26;87.42;100915.34;5025378;28;20111;-76
2022/05/11 07:01:57;;;;;;;13.52;4.60;;;;;;;14.56;87.82;100944.78;5025410;28;20036;-76
2022/05/11 07:04:23;;;;;;;8.05;4.60;;;;;;;14.54;87.19;100930.81;5026511;28;20432;-76
2022/05/11 07:06:55;;;;;;;9.27;4.43;;;;;;;14.62;86.94;100936.13;5024306;28;20033;-76
2022/05/11 07:09:22;;;;;;;10.73;4.25;;;;;;;14.59;87.30;100950.59;5011670;28;20057;-76
2022/05/11 07:14:32;;;;;;;12.20;4.45;;;;;;;14.74;86.09;100940.06;5012444;28;20044;-76
2022/05/11 07:16:57;;;;;;;11.15;3.90;;;;;;;14.84;85.88;100933.69;5020432;28;20033;-76
2022/05/11 07:19:24;;;;;;;8.18;4.38;;;;;;;14.95;86.11;100930.63;4982801;28;20112;-76
2022/05/11 07:21:50;;;;;;;12.98;4.55;;;;;;;15.30;85.05;100961.09;5018108;28;20502;-76
2022/05/11 07:24:16;;;;;;;12.88;5.07;;;;;;;15.18;84.26;100944.75;5015835;28;20042;-76
2022/05/11 07:26:42;;;;;;;12.60;4.10;;;;;;;15.40;84.01;100960.88;5014415;28;20030;-75
2022/05/11 07:29:07;;;;;;;7.53;3.13;;;;;;;15.37;83.77;100934.59;5013238;28;20653;-76
2022/05/11 07:31:33;;;;;;;11.00;4.07;;;;;;;15.69;82.46;100951.28;5014710;28;20118;-77
2022/05/11 07:33:58;;;;;;;12.00;3.92;;;;;;;15.50;82.73;100952.63;5028062;28;20029;-76
2022/05/11 07:36:24;;;;;;;9.75;4.75;;;;;;;15.34;82.71;100950.94;5023184;28;20041;-76
2022/05/11 07:38:51;;;;;;;12.95;4.05;;;;;;;15.23;84.30;100950.34;5013967;28;20246;-76
2022/05/11 07:41:16;;;;;;;12.73;4.50;;;;;;;15.53;83.10;100947.78;5015189;28;20033;-76
2022/05/11 07:43:42;;;;;;;12.27;4.43;;;;;;;15.91;83.06;100937.13;5021980;28;20032;-76
2022/05/11 07:46:07;;;;;;;11.13;4.07;;;;;;;16.09;81.62;100960.75;5001470;28;20031;-76
2022/05/11 07:48:32;;;;;;;8.77;3.72;;;;;;;16.23;80.84;100948.41;5010557;28;20040;-76
2022/05/11 07:50:58;;;;;;;12.65;3.80;;;;;;;16.72;79.99;100934.44;5008584;28;20028;-76
2022/05/11 07:53:23;;;;;;;16.52;4.90;;;;;;;16.94;77.74;100929.16;5019722;28;20032;-76
2022/05/11 07:59:52;;;;;;;18.63;4.75;;;;;;;16.81;76.38;100906.72;4997255;28;20576;-76
2022/05/11 08:01:18;;;;;;;10.40;3.97;;;;;;;17.09;75.57;100935.28;5014340;28;20056;-76
2022/05/11 08:03:44;;;;;;;12.75;3.15;;;;;;;17.78;74.97;100933.78;5022381;28;20410;-76
2022/05/11 08:06:09;;;;;;;7.47;3.28;;;;;;;18.81;70.43;100926.69;5025686;28;20030;-76
2022/05/11 08:08:34;;;;;;;10.73;3.42;;;;;;;19.35;68.04;100934.78;5014376;28;20441;-76
2022/05/11 08:11:00;;;;;;;10.00;3.25;;;;;;;18.70;70.35;100943.28;5022895;28;20033;-76
2022/05/11 08:13:25;;;;;;;12.45;3.42;;;;;;;18.17;70.49;100937.75;5020315;28;20041;-76
2022/05/11 08:15:50;;;;;;;9.02;3.28;;;;;;;18.28;71.40;100945.19;5018061;28;20052;-76
2022/05/11 08:18:16;;;;;;;11.02;3.38;;;;;;;18.50;70.10;100956.59;4998051;28;20067;-77
2022/05/11 08:20:43;;;;;;;14.00;3.42;;;;;;;18.00;71.71;100959.41;5026084;28;20045;-77
2022/05/11 08:23:10;;;;;;;9.10;2.85;;;;;;;18.28;70.92;100950.53;5016534;28;20034;-76
2022/05/11 08:25:38;;;;;;;14.52;3.42;;;;;;;18.20;70.38;100938.16;5015282;28;20515;-76
2022/05/11 08:28:11;;;;;;;11.23;2.70;;;;;;;18.91;68.68;100924.44;5022224;28;20025;-76
2022/05/11 08:33:23;;;;;;;9.55;2.97;;;;;;;19.52;66.06;100946.72;5007027;28;20389;-76
2022/05/11 08:35:52;;;;;;;12.13;2.40;;;;;;;19.61;64.59;100944.66;5010923;28;20468;-76
2022/05/11 08:38:21;;;;;;;9.43;2.92;;;;;;;19.56;65.86;100942.59;5010933;28;20034;-78
2022/05/11 08:40:52;;;;;;;10.57;2.90;;;;;;;19.84;65.33;100949.63;5011416;28;20018;-76
2022/05/11 08:43:19;;;;;;;9.90;2.58;;;;;;;20.02;64.23;100949.78;5012313;28;20393;-76
2022/05/11 08:45:54;;;;;;;9.75;2.85;;;;;;;19.46;65.61;100945.69;5017658;28;20462;-76
2022/05/11 08:48:36;;;;;;;8.13;2.25;;;;;;;19.94;64.77;100956.16;5020388;28;20678;-77
2022/05/11 08:51:05;;;;;;;8.25;2.60;;;;;;;20.48;62.78;100950.66;5019894;28;20115;-76
2022/05/11 08:53:37;;;;;;;9.23;2.58;;;;;;;21.97;59.66;100948.34;5013932;28;20021;-76
2022/05/11 08:56:12;;;;;;;9.48;3.33;;;;;;;21.75;59.13;100951.50;5016404;28;20026;-76
2022/05/11 08:58:45;;;;;;;12.18;2.88;;;;;;;21.92;58.17;100953.59;5007480;28;20489;-77
2022/05/11 09:01:18;;;;;;;9.68;2.78;;;;;;;21.66;57.68;100958.16;5014804;28;20025;-77
2022/05/11 09:03:45;;;;;;;9.05;2.33;;;;;;;21.15;59.36;100951.13;5014226;28;20033;-77
2022/05/11 09:06:18;;;;;;;15.98;3.42;;;;;;;20.56;59.93;100969.19;5021092;28;20022;-77
2022/05/11 09:08:45;;;;;;;7.75;2.60;;;;;;;20.52;60.25;100963.41;5013346;28;20180;-76
2022/05/11 09:11:16;;;;;;;7.28;2.20;;;;;;;20.76;60.35;100953.03;5021117;28;20390;-77
2022/05/11 09:13:42;;;;;;;13.73;2.53;;;;;;;20.23;62.42;100971.97;5015099;28;20493;-76
2022/05/11 09:16:28;;;;;;;10.07;2.40;;;;;;;19.72;63.34;100968.16;5017285;28;20394;-78
2022/05/11 09:18:56;;;;;;;13.55;2.83;;;;;;;19.91;62.48;100948.56;5021337;28;20030;-78
2022/05/11 09:21:32;;;;;;;13.15;3.08;;;;;;;19.10;64.02;100954.13;5009791;28;20405;-78
2022/05/11 09:24:13;;;;;;;7.70;2.45;;;;;;;19.82;61.19;100962.38;5014523;28;20073;-78
2022/05/11 09:26:46;;;;;;;8.88;2.63;;;;;;;20.54;62.30;100960.53;5017100;28;20511;-76
2022/05/11 09:29:22;;;;;;;10.00;2.65;;;;;;;21.71;60.99;100968.25;5008866;28;20410;-76
2022/05/11 09:31:50;;;;;;;7.38;2.50;;;;;;;22.05;57.83;100961.50;5008986;28;20432;-77
2022/05/11 09:34:33;;;;;;;12.50;2.28;;;;;;;22.97;55.03;100964.13;5018480;28;20512;-77
2022/05/11 09:37:02;;;;;;;10.48;2.05;;;;;;;24.05;51.64;100955.13;5015586;28;20033;-78
2022/05/11 09:39:30;;;;;;;9.45;2.03;;;;;;;24.54;50.70;100947.50;5016758;28;20028;-77
2022/05/11 09:42:10;;;;;;;7.10;2.03;;;;;;;24.78;49.59;100969.81;5014481;28;20485;-77
2022/05/11 09:44:42;;;;;;;7.18;1.85;;;;;;;23.22;52.24;100965.84;5016179;28;20108;-77
2022/05/11 09:47:33;;;;;;;6.80;1.90;;;;;;;22.32;52.88;100956.69;5020840;28;20030;-77
2022/05/11 09:50:20;;;;;;;11.02;2.47;;;;;;;20.85;55.84;100953.59;5018105;28;20025;-77
2022/05/11 09:52:46;;;;;;;8.40;1.83;;;;;;;21.11;58.03;100949.91;5016215;28;20053;-77
2022/05/11 09:55:31;;;;;;;6.65;1.55;;;;;;;21.71;54.56;100961.03;5017659;28;20034;-76
2022/05/11 09:58:00;;;;;;;8.20;1.88;;;;;;;23.30;52.95;100968.19;5018149;28;20054;-76
2022/05/11 10:00:37;;;;;;;11.02;1.90;;;;;;;23.94;51.45;100967.53;5021217;28;20110;-76
2022/05/11 10:03:07;;;;;;;6.15;1.65;;;;;;;25.71;46.75;100980.31;5014433;28;20045;-76
2022/05/11 10:05:43;;;;;;;9.13;1.98;;;;;;;24.69;48.02;100973.94;5011385;28;20501;-77
2022/05/11 10:08:31;;;;;;;7.70;1.80;;;;;;;24.66;49.50;100958.25;5018357;28;20112;-77
2022/05/11 10:11:21;;;;;;;9.70;2.08;;;;;;;25.67;46.05;100966.44;5018524;28;20392;-77
2022/05/11 10:14:01;;;;;;;5.28;1.95;;;;;;;25.24;46.99;100960.69;5018532;28;20112;-77
2022/05/11 10:25:00;;;;;;;6.25;1.92;;;;;;;24.36;47.53;100964.66;5506810;22;20077;-77
2022/05/11 10:27:47;;;;;;;6.85;1.77;;;;;;;24.08;48.01;100952.75;4966842;28;20446;-77
2022/05/11 10:30:25;;;;;;;5.63;1.20;;;;;;;25.14;46.63;100957.75;4981433;28;20504;-78
2022/05/11 10:33:12;;;;;;;6.50;1.90;;;;;;;24.33;48.79;100962.44;4956548;28;20023;-77
2022/05/11 10:36:03;;;;;;;8.07;1.73;;;;;;;25.83;47.04;100949.41;4965165;28;20481;-77
2022/05/11 10:38:49;;;;;;;6.72;1.85;;;;;;;25.47;44.56;100922.91;4977331;28;20026;-77
2022/05/11 10:41:36;;;;;;;7.68;1.52;;;;;;;25.27;45.20;100947.75;4983182;28;20022;-78
2022/05/11 10:44:32;;;;;;;7.72;1.83;;;;;;;23.05;48.36;100946.00;4981011;28;20022;-76
2022/05/11 10:47:16;;;;;;;6.90;1.08;;;;;;;25.47;47.04;100945.34;4984313;28;20038;-77
2022/05/11 10:49:57;;;;;;;9.82;1.63;;;;;;;25.71;45.90;100948.69;4980863;28;20100;-77
2022/05/11 10:52:25;;;;;;;;;;;;;;;25.32;46.37;100945.13;4984792;28;20038;-77
2022/05/11 10:55:09;;;;;;;6.28;1.60;;;;;;;23.67;47.46;100953.69;4984952;28;20033;-77
2022/05/11 10:57:48;;;;;;;9.77;2.25;;;;;;;24.03;48.06;100939.16;4981913;28;20485;-77
2022/05/11 11:00:21;;;;;;;7.43;1.88;;;;;;;23.19;49.18;100942.06;4979045;28;20154;-77
2022/05/11 11:02:59;;;;;;;5.85;1.80;;;;;;;24.56;47.73;100940.81;4982359;28;20501;-76
2022/05/11 11:05:47;;;;;;;5.55;1.52;;;;;;;23.75;47.82;100943.41;4980995;28;20031;-76
2022/05/11 11:08:32;;;;;;;8.05;1.70;;;;;;;24.92;46.54;100938.75;4965746;28;20023;-76
2022/05/11 11:11:07;;;;;;;11.10;1.95;;;;;;;25.20;45.91;100951.41;4979553;28;20061;-76
2022/05/11 11:13:40;;;;;;;11.27;1.73;;;;;;;24.15;47.28;100950.75;4982774;28;20042;-76
2022/05/11 11:16:10;;;;;;;7.05;1.10;;;;;;;24.00;48.40;100959.34;4965490;28;20564;-76
2022/05/11 11:18:40;;;;;;;7.55;2.00;;;;;;;24.43;47.42;100949.13;4984808;28;20189;-76
2022/05/11 11:21:08;;;;;;;9.63;1.60;;;;;;;24.42;46.60;100947.50;4981774;28;20030;-77
2022/05/11 11:23:42;;;;;;;8.45;1.65;;;;;;;25.08;46.45;100955.22;4987562;28;20375;-77
2022/05/11 11:26:46;;;;;;;5.25;1.13;;;;;;;26.23;45.00;100942.91;4988837;28;20049;-76
2022/05/11 11:29:11;;;;;;;8.98;1.70;;;;;;;26.27;43.33;100943.22;4917453;29;20052;-77
2022/05/11 11:31:56;;;;;;;7.85;1.50;;;;;;;25.04;45.17;100938.69;4917126;29;20028;-76
2022/05/11 11:34:23;;;;;;;7.95;1.80;;;;;;;25.89;46.11;100922.47;4919112;29;20036;-77
2022/05/11 11:36:49;;;;;;;6.57;1.70;;;;;;;24.66;46.35;100939.38;4917736;29;20060;-76
2022/05/11 11:39:54;;;;;;;7.03;1.77;;;;;;;23.51;49.89;100926.41;4919894;29;20051;-75
2022/05/11 11:42:36;;;;;;;11.07;2.47;;;;;;;23.51;49.39;100922.88;4921461;29;20048;-77
2022/05/11 11:45:03;;;;;;;7.75;1.88;;;;;;;22.36;50.03;100928.31;4918154;29;20126;-74
2022/05/11 11:47:30;;;;;;;9.23;1.90;;;;;;;22.76;49.99;100918.88;4918322;29;20534;-73
2022/05/11 11:49:57;;;;;;;6.72;1.65;;;;;;;23.15;50.23;100919.34;4918633;29;20056;-68
2022/05/11 11:52:39;;;;;;;9.00;1.88;;;;;;;22.51;51.29;100901.00;4914119;29;20047;-73
2022/05/11 11:55:23;;;;;;;7.70;2.20;;;;;;;21.44;53.63;100924.72;4916255;29;20040;-69
2022/05/11 11:57:55;;;;;;;9.88;2.10;;;;;;;21.80;52.85;100917.75;4916692;29;20046;-71
2022/05/11 12:00:20;;;;;;;6.38;1.95;;;;;;;21.43;53.21;100921.22;4901142;29;20070;-69
2022/05/11 12:02:46;;;;;;;7.57;1.58;;;;;;;21.63;54.07;100904.09;4917495;29;20059;-69
2022/05/11 12:05:32;;;;;;;6.63;1.85;;;;;;;23.12;52.03;100922.50;4919261;28;20050;-69